createdAt,value
2022-10-13T00:00:21.291Z,100787.94
2022-10-13T00:01:24.225Z,100788.81
2022-10-13T00:02:26.124Z,100793.07
2022-10-13T00:03:27.768Z,100788.67
2022-10-13T00:04:30.514Z,100790.35
2022-10-13T00:05:33.316Z,100786.63
2022-10-13T00:06:35.255Z,100795.11
2022-10-13T00:07:37.016Z,100787.14
2022-10-13T00:08:39.543Z,100786.30
2022-10-13T00:09:43.135Z,100786.30
2022-10-13T00:10:47.637Z,100789.86
2022-10-13T00:11:50.561Z,100786.39
2022-10-13T00:12:52.825Z,100788.86
2022-10-13T00:15:10.027Z,100788.01
2022-10-13T00:16:15.245Z,100782.13
2022-10-13T00:17:16.999Z,100781.09
2022-10-13T00:18:18.950Z,100786.83
2022-10-13T00:19:20.843Z,100787.07
2022-10-13T00:20:22.883Z,100785.56
2022-10-13T00:21:26.217Z,100787.22
2022-10-13T00:22:28.543Z,100787.33
2022-10-13T00:23:33.302Z,100788.84
2022-10-13T00:24:35.241Z,100792.03
2022-10-13T00:26:56.059Z,100790.26
2022-10-13T00:27:57.895Z,100793.80
2022-10-13T00:29:01.709Z,100790.05
2022-10-13T00:30:04.826Z,100786.47
2022-10-13T00:31:27.997Z,100791.81
2022-10-13T00:32:30.035Z,100782.05
2022-10-13T00:33:31.922Z,100781.98
2022-10-13T00:34:34.888Z,100788.45
2022-10-13T00:35:45.472Z,100785.28
2022-10-13T00:36:49.656Z,100781.80
2022-10-13T00:37:52.719Z,100786.16
2022-10-13T00:38:55.761Z,100785.13
2022-10-13T00:39:57.620Z,100775.87
2022-10-13T00:40:59.625Z,100787.19
2022-10-13T00:42:02.581Z,100782.02
2022-10-13T00:43:08.190Z,100778.59
2022-10-13T00:44:47.186Z,100780.16
2022-10-13T00:45:50.435Z,100779.92
2022-10-13T00:46:52.484Z,100786.47
2022-10-13T00:48:00.741Z,100779.50
2022-10-13T00:49:06.424Z,100777.12
2022-10-13T00:50:12.931Z,100782.21
2022-10-13T00:51:18.626Z,100781.06
2022-10-13T00:52:23.179Z,100773.91
2022-10-13T00:53:28.700Z,100771.97
2022-10-13T00:54:30.677Z,100780.75
2022-10-13T00:55:35.437Z,100783.34
2022-10-13T00:56:38.784Z,100776.39
2022-10-13T00:57:43.563Z,100780.84
2022-10-13T00:58:48.365Z,100783.30
2022-10-13T00:59:51.193Z,100779.66
2022-10-13T01:00:53.455Z,100786.27
2022-10-13T01:01:58.426Z,100779.10
2022-10-13T01:03:02.106Z,100779.15
2022-10-13T01:04:05.224Z,100781.28
2022-10-13T01:05:08.434Z,100786.98
2022-10-13T01:06:12.203Z,100785.75
2022-10-13T01:07:16.392Z,100790.25
2022-10-13T01:08:21.426Z,100784.54
2022-10-13T01:09:23.197Z,100783.52
2022-10-13T01:10:46.807Z,100785.64
2022-10-13T01:12:13.637Z,100785.27
2022-10-13T01:13:28.203Z,100784.48
2022-10-13T01:14:34.999Z,100783.79
2022-10-13T01:15:43.206Z,100786.03
2022-10-13T01:17:08.924Z,100782.50
2022-10-13T01:18:23.612Z,100785.89
2022-10-13T01:19:41.580Z,100780.69
2022-10-13T01:21:06.937Z,100777.87
2022-10-13T01:22:21.624Z,100777.03
2022-10-13T01:23:42.422Z,100777.36
2022-10-13T01:24:48.052Z,100780.56
2022-10-13T01:26:17.994Z,100776.94
2022-10-13T01:27:28.278Z,100771.11
2022-10-13T01:28:54.523Z,100771.19
2022-10-13T01:30:05.621Z,100775.66
2022-10-13T01:31:30.501Z,100770.92
2022-10-13T01:32:55.700Z,100775.44
2022-10-13T01:34:07.700Z,100767.26
2022-10-13T01:35:14.338Z,100773.69
2022-10-13T01:36:32.065Z,100775.53
2022-10-13T01:37:46.541Z,100770.39
2022-10-13T01:38:58.403Z,100769.47
2022-10-13T01:40:38.996Z,100764.28
2022-10-13T01:41:47.545Z,100770.92
2022-10-13T01:43:04.639Z,100765.68
2022-10-13T01:44:34.649Z,100760.17
2022-10-13T01:45:40.230Z,100758.45
2022-10-13T01:46:46.546Z,100755.91
2022-10-13T01:47:50.871Z,100756.73
2022-10-13T01:48:55.884Z,100757.06
2022-10-13T01:49:59.315Z,100760.62
2022-10-13T01:51:01.797Z,100756.38
2022-10-13T01:52:10.275Z,100761.81
2022-10-13T01:53:14.759Z,100757.59
2022-10-13T01:54:17.097Z,100760.94
2022-10-13T01:55:18.917Z,100757.30
2022-10-13T01:56:20.620Z,100761.69
2022-10-13T01:57:31.895Z,100759.89
2022-10-13T01:58:36.221Z,100763.97
2022-10-13T01:59:38.171Z,100767.31
2022-10-13T02:00:44.327Z,100762.66
2022-10-13T02:02:09.102Z,100762.92
2022-10-13T02:03:14.774Z,100767.31
2022-10-13T02:04:26.455Z,100765.38
2022-10-13T02:05:31.942Z,100770.39
2022-10-13T02:06:54.395Z,100770.61
2022-10-13T02:08:03.001Z,100763.68
2022-10-13T02:09:10.978Z,100768.86
2022-10-13T02:11:34.495Z,100765.08
2022-10-13T02:12:54.592Z,100764.37
2022-10-13T02:14:03.458Z,100764.37
2022-10-13T02:15:09.242Z,100772.90
2022-10-13T02:16:14.475Z,100773.86
2022-10-13T02:17:17.459Z,100772.72
2022-10-13T02:18:24.007Z,100776.33
2022-10-13T02:19:28.193Z,100779.05
2022-10-13T02:20:31.498Z,100769.47
2022-10-13T02:21:33.750Z,100771.84
2022-10-13T02:22:43.243Z,100774.43
2022-10-13T02:23:45.725Z,100774.21
2022-10-13T02:24:47.941Z,100775.52
2022-10-13T02:25:50.056Z,100772.63
2022-10-13T02:26:53.139Z,100777.52
2022-10-13T02:27:58.935Z,100779.14
2022-10-13T02:29:11.571Z,100772.18
2022-10-13T02:30:23.169Z,100777.08
2022-10-13T02:31:25.292Z,100774.22
2022-10-13T02:32:27.337Z,100775.93
2022-10-13T02:33:29.146Z,100772.29
2022-10-13T02:34:32.052Z,100776.48
2022-10-13T02:35:34.213Z,100775.10
2022-10-13T02:36:36.799Z,100779.78
2022-10-13T02:37:38.595Z,100779.30
2022-10-13T02:38:40.456Z,100784.12
2022-10-13T02:39:42.832Z,100778.09
2022-10-13T02:40:47.148Z,100781.44
2022-10-13T02:41:48.842Z,100783.00
2022-10-13T02:42:51.145Z,100779.48
2022-10-13T02:43:52.904Z,100776.24
2022-10-13T02:44:56.167Z,100782.27
2022-10-13T02:45:58.325Z,100777.81
2022-10-13T02:47:00.150Z,100775.91
2022-10-13T02:48:01.991Z,100776.89
2022-10-13T02:49:03.738Z,100786.67
2022-10-13T02:50:06.561Z,100779.17
2022-10-13T02:51:08.496Z,100779.22
2022-10-13T02:52:10.252Z,100779.02
2022-10-13T02:53:14.188Z,100776.24
2022-10-13T02:54:16.050Z,100782.69
2022-10-13T02:55:18.533Z,100772.50
2022-10-13T02:56:20.970Z,100773.65
2022-10-13T02:57:22.815Z,100777.03
2022-10-13T02:58:24.997Z,100771.00
2022-10-13T02:59:26.720Z,100771.00
2022-10-13T03:00:28.716Z,100775.97
2022-10-13T03:01:31.201Z,100785.38
2022-10-13T03:02:33.178Z,100785.83
2022-10-13T03:03:35.815Z,100773.38
2022-10-13T03:04:37.648Z,100777.09
2022-10-13T03:05:40.646Z,100776.98
2022-10-13T03:06:42.604Z,100780.20
2022-10-13T03:07:45.480Z,100783.45
2022-10-13T03:08:47.244Z,100775.77
2022-10-13T03:09:49.590Z,100774.97
2022-10-13T03:10:51.921Z,100774.97
2022-10-13T03:11:53.713Z,100777.02
2022-10-13T03:12:55.580Z,100774.70
2022-10-13T03:13:57.348Z,100770.12
2022-10-13T03:14:59.238Z,100767.39
2022-10-13T03:16:01.032Z,100773.42
2022-10-13T03:17:03.423Z,100776.89
2022-10-13T03:18:05.903Z,100773.17
2022-10-13T03:19:07.838Z,100772.45
2022-10-13T03:20:10.594Z,100768.81
2022-10-13T03:21:12.345Z,100770.44
2022-10-13T03:22:14.243Z,100777.30
2022-10-13T03:23:16.475Z,100778.09
2022-10-13T03:24:18.458Z,100778.09
2022-10-13T03:25:20.583Z,100774.48
2022-10-13T03:26:22.474Z,100776.02
2022-10-13T03:27:24.902Z,100773.47
2022-10-13T03:28:26.911Z,100779.72
2022-10-13T03:29:29.050Z,100776.24
2022-10-13T03:30:30.961Z,100778.70
2022-10-13T03:31:33.258Z,100777.86
2022-10-13T03:32:38.274Z,100774.25
2022-10-13T03:33:40.464Z,100779.12
2022-10-13T03:34:42.384Z,100771.89
2022-10-13T03:35:44.170Z,100769.34
2022-10-13T03:36:46.187Z,100772.45
2022-10-13T03:37:48.467Z,100780.68
2022-10-13T03:38:50.122Z,100780.68
2022-10-13T03:39:52.357Z,100776.63
2022-10-13T03:40:54.369Z,100777.52
2022-10-13T03:41:56.309Z,100780.84
2022-10-13T03:42:58.073Z,100771.00
2022-10-13T03:43:59.946Z,100771.00
2022-10-13T03:45:05.288Z,100773.64
2022-10-13T03:46:12.942Z,100781.44
2022-10-13T03:47:16.143Z,100779.62
2022-10-13T03:48:18.011Z,100779.27
2022-10-13T03:49:20.022Z,100779.27
2022-10-13T03:50:22.000Z,100782.09
2022-10-13T03:51:24.241Z,100774.30
2022-10-13T03:52:26.092Z,100784.02
2022-10-13T03:53:28.782Z,100785.65
2022-10-13T03:54:30.837Z,100777.91
2022-10-13T03:55:32.823Z,100779.84
2022-10-13T03:56:34.544Z,100772.77
2022-10-13T03:57:36.377Z,100776.58
2022-10-13T03:58:37.985Z,100778.48
2022-10-13T03:59:41.540Z,100782.95
2022-10-13T04:00:43.834Z,100783.39
2022-10-13T04:01:45.688Z,100782.59
2022-10-13T04:02:48.687Z,100794.68
2022-10-13T04:03:52.997Z,100782.59
2022-10-13T04:04:54.754Z,100787.86
2022-10-13T04:06:01.819Z,100782.02
2022-10-13T04:07:04.305Z,100793.27
2022-10-13T04:08:06.808Z,100786.30
2022-10-13T04:09:08.812Z,100793.15
2022-10-13T04:10:11.617Z,100790.45
2022-10-13T04:11:15.527Z,100791.97
2022-10-13T04:12:20.894Z,100783.96
2022-10-13T04:13:22.023Z,100792.73
2022-10-13T04:14:26.316Z,100782.39
2022-10-13T04:15:30.491Z,100784.80
2022-10-13T04:16:32.435Z,100789.10
2022-10-13T04:17:35.398Z,100792.41
2022-10-13T04:18:41.071Z,100788.64
2022-10-13T04:19:41.726Z,100791.33
2022-10-13T04:20:43.644Z,100795.71
2022-10-13T04:21:45.460Z,100794.92
2022-10-13T04:22:47.437Z,100793.25
2022-10-13T04:23:49.763Z,100787.00
2022-10-13T04:24:51.689Z,100792.60
2022-10-13T04:25:53.292Z,100793.39
2022-10-13T04:26:55.312Z,100796.72
2022-10-13T04:27:57.033Z,100794.78
2022-10-13T04:28:59.296Z,100792.80
2022-10-13T04:30:01.381Z,100794.31
2022-10-13T04:31:03.431Z,100790.55
2022-10-13T04:32:05.726Z,100793.73
2022-10-13T04:33:08.906Z,100791.48
2022-10-13T04:34:11.457Z,100796.77
2022-10-13T04:35:13.405Z,100790.20
2022-10-13T04:36:16.874Z,100791.09
2022-10-13T04:37:20.253Z,100791.30
2022-10-13T04:38:22.054Z,100783.62
2022-10-13T04:39:24.069Z,100793.26
2022-10-13T04:40:26.994Z,100794.48
2022-10-13T04:41:29.160Z,100795.41
2022-10-13T04:42:30.859Z,100795.49
2022-10-13T04:43:34.529Z,100799.11
2022-10-13T04:44:36.436Z,100799.09
2022-10-13T04:45:40.053Z,100796.33
2022-10-13T04:46:42.987Z,100797.09
2022-10-13T04:47:44.987Z,100793.60
2022-10-13T04:48:47.337Z,100796.81
2022-10-13T04:49:49.868Z,100796.63
2022-10-13T04:52:21.607Z,100793.30
2022-10-13T04:53:23.921Z,100793.34
2022-10-13T04:54:25.807Z,100794.91
2022-10-13T04:55:27.742Z,100797.45
2022-10-13T04:56:30.840Z,100793.94
2022-10-13T04:57:34.492Z,100799.91
2022-10-13T04:58:37.820Z,100782.81
2022-10-13T04:59:40.221Z,100782.81
2022-10-13T05:00:45.830Z,100792.41
2022-10-13T05:01:47.742Z,100801.13
2022-10-13T05:02:49.849Z,100796.83
2022-10-13T05:03:57.361Z,100800.99
2022-10-13T05:04:59.955Z,100796.81
2022-10-13T05:06:02.120Z,100796.08
2022-10-13T05:07:17.449Z,100797.94
2022-10-13T05:08:08.983Z,100794.31
2022-10-13T05:09:14.718Z,100795.70
2022-10-13T05:10:17.222Z,100792.27
2022-10-13T05:11:19.284Z,100797.16
2022-10-13T05:12:23.460Z,100797.70
2022-10-13T05:13:28.850Z,100804.30
2022-10-13T05:14:32.819Z,100797.13
2022-10-13T05:15:38.543Z,100798.58
2022-10-13T05:16:40.593Z,100806.20
2022-10-13T05:17:42.733Z,100812.80
2022-10-13T05:18:44.875Z,100806.70
2022-10-13T05:19:48.757Z,100813.44
2022-10-13T05:20:50.847Z,100805.47
2022-10-13T05:21:52.819Z,100813.13
2022-10-13T05:22:54.648Z,100802.66
2022-10-13T05:23:57.008Z,100797.38
2022-10-13T05:24:58.895Z,100797.38
2022-10-13T05:26:03.140Z,100810.09
2022-10-13T05:27:08.310Z,100812.67
2022-10-13T05:28:10.442Z,100810.20
2022-10-13T05:29:13.170Z,100803.11
2022-10-13T05:30:15.345Z,100799.55
2022-10-13T05:31:22.449Z,100806.53
2022-10-13T05:32:25.039Z,100818.99
2022-10-13T05:33:27.952Z,100818.05
2022-10-13T05:34:30.004Z,100811.52
2022-10-13T05:35:31.932Z,100825.29
2022-10-13T05:36:34.556Z,100821.62
2022-10-13T05:37:37.688Z,100818.19
2022-10-13T05:38:39.610Z,100818.14
2022-10-13T05:39:41.259Z,100825.29
2022-10-13T05:40:42.994Z,100823.95
2022-10-13T05:41:45.883Z,100828.27
2022-10-13T05:42:53.202Z,100822.85
2022-10-13T05:44:00.750Z,100828.71
2022-10-13T05:45:04.403Z,100832.03
2022-10-13T05:46:07.265Z,100831.89
2022-10-13T05:47:11.034Z,100827.23
2022-10-13T05:48:12.889Z,100823.09
2022-10-13T05:49:15.276Z,100823.09
2022-10-13T05:50:17.173Z,100829.84
2022-10-13T05:51:25.701Z,100827.88
2022-10-13T05:52:30.680Z,100825.03
2022-10-13T05:53:36.050Z,100824.03
2022-10-13T05:54:44.326Z,100827.35
2022-10-13T05:55:46.305Z,100828.09
2022-10-13T05:56:56.713Z,100827.05
2022-10-13T05:58:01.708Z,100833.02
2022-10-13T05:59:07.366Z,100834.83
2022-10-13T06:00:16.208Z,100832.94
2022-10-13T06:01:21.838Z,100830.33
2022-10-13T06:02:27.350Z,100831.09
2022-10-13T06:03:29.389Z,100832.70
2022-10-13T06:04:41.420Z,100829.06
2022-10-13T06:05:45.472Z,100837.45
2022-10-13T06:06:48.984Z,100834.19
2022-10-13T06:07:51.615Z,100829.64
2022-10-13T06:08:53.633Z,100834.83
2022-10-13T06:09:57.130Z,100835.80
2022-10-13T06:10:59.869Z,100826.13
2022-10-13T06:12:01.974Z,100838.03
2022-10-13T06:13:04.251Z,100833.52
2022-10-13T06:14:06.051Z,100839.56
2022-10-13T06:15:09.509Z,100844.61
2022-10-13T06:16:11.924Z,100837.05
2022-10-13T06:17:13.735Z,100841.78
2022-10-13T06:18:17.521Z,100841.78
2022-10-13T06:19:19.642Z,100843.56
2022-10-13T06:20:21.753Z,100849.72
2022-10-13T06:21:24.168Z,100852.01
2022-10-13T06:22:26.505Z,100851.27
2022-10-13T06:23:29.420Z,100847.53
2022-10-13T06:24:33.576Z,100854.20
2022-10-13T06:25:35.633Z,100846.80
2022-10-13T06:26:37.517Z,100842.44
2022-10-13T06:27:39.310Z,100847.44
2022-10-13T06:28:40.998Z,100849.44
2022-10-13T06:29:42.866Z,100846.66
2022-10-13T06:30:45.568Z,100845.44
2022-10-13T06:31:47.519Z,100849.02
2022-10-13T06:32:50.556Z,100846.41
2022-10-13T06:33:52.694Z,100851.52
2022-10-13T06:34:54.701Z,100847.05
2022-10-13T06:35:56.337Z,100851.06
2022-10-13T06:36:58.322Z,100848.07
2022-10-13T06:38:00.263Z,100844.20
2022-10-13T06:39:02.523Z,100845.44
2022-10-13T06:40:05.476Z,100849.52
2022-10-13T06:41:08.400Z,100839.70
2022-10-13T06:42:11.234Z,100841.89
2022-10-13T06:43:12.890Z,100848.41
2022-10-13T06:44:17.236Z,100843.71
2022-10-13T06:45:20.126Z,100844.06
2022-10-13T06:46:22.581Z,100838.72
2022-10-13T06:47:25.578Z,100836.75
2022-10-13T06:48:29.260Z,100843.36
2022-10-13T06:49:31.434Z,100839.45
2022-10-13T06:50:35.158Z,100839.45
2022-10-13T06:51:38.758Z,100838.44
2022-10-13T06:52:40.464Z,100843.37
2022-10-13T06:53:42.876Z,100847.49
2022-10-13T06:54:45.667Z,100853.41
2022-10-13T06:55:52.234Z,100844.57
2022-10-13T06:56:52.382Z,100844.48
2022-10-13T06:57:55.148Z,100847.73
2022-10-13T06:58:57.549Z,100847.58
2022-10-13T07:00:00.369Z,100857.92
2022-10-13T07:01:02.893Z,100844.83
2022-10-13T07:02:05.820Z,100849.20
2022-10-13T07:03:08.014Z,100844.08
2022-10-13T07:04:09.740Z,100845.88
2022-10-13T07:05:11.376Z,100848.54
2022-10-13T07:06:14.043Z,100844.28
2022-10-13T07:07:16.336Z,100849.58
2022-10-13T07:08:19.230Z,100842.77
2022-10-13T07:09:21.001Z,100854.16
2022-10-13T07:10:23.059Z,100855.89
2022-10-13T07:11:25.482Z,100857.86
2022-10-13T07:12:29.243Z,100850.09
2022-10-13T07:13:34.908Z,100857.72
2022-10-13T07:14:37.296Z,100857.72
2022-10-13T07:15:41.435Z,100847.98
2022-10-13T07:16:44.087Z,100853.81
2022-10-13T07:17:47.078Z,100849.08
2022-10-13T07:18:49.287Z,100849.08
2022-10-13T07:19:55.780Z,100852.38
2022-10-13T07:20:58.166Z,100855.75
2022-10-13T07:22:00.106Z,100855.75
2022-10-13T07:23:04.046Z,100857.42
2022-10-13T07:24:06.326Z,100845.25
2022-10-13T07:25:09.639Z,100841.77
2022-10-13T07:26:14.995Z,100847.29
2022-10-13T07:27:18.155Z,100849.20
2022-10-13T07:28:20.040Z,100850.13
2022-10-13T07:29:22.678Z,100837.96
2022-10-13T07:30:25.001Z,100846.48
2022-10-13T07:31:28.526Z,100845.45
2022-10-13T07:32:32.526Z,100848.84
2022-10-13T07:33:34.740Z,100847.95
2022-10-13T07:34:37.014Z,100850.41
2022-10-13T07:35:39.237Z,100847.73
2022-10-13T07:36:42.019Z,100845.10
2022-10-13T07:37:43.906Z,100848.61
2022-10-13T07:38:46.176Z,100847.65
2022-10-13T07:39:47.876Z,100847.65
2022-10-13T07:40:50.476Z,100841.47
2022-10-13T07:41:52.568Z,100846.59
2022-10-13T07:42:56.310Z,100836.25
2022-10-13T07:43:58.612Z,100846.59
2022-10-13T07:45:00.416Z,100848.27
2022-10-13T07:46:04.282Z,100846.59
2022-10-13T07:47:06.188Z,100841.38
2022-10-13T07:48:07.974Z,100846.47
2022-10-13T07:49:12.360Z,100846.38
2022-10-13T07:50:14.732Z,100848.09
2022-10-13T07:51:16.728Z,100842.88
2022-10-13T07:52:18.909Z,100848.87
2022-10-13T07:53:21.610Z,100847.16
2022-10-13T07:54:26.520Z,100847.91
2022-10-13T07:55:27.331Z,100843.44
2022-10-13T07:56:29.427Z,100846.05
2022-10-13T07:57:31.569Z,100842.31
2022-10-13T07:58:39.664Z,100842.31
2022-10-13T07:59:41.657Z,100847.44
2022-10-13T08:00:47.932Z,100845.63
2022-10-13T08:01:50.538Z,100844.70
2022-10-13T08:02:52.514Z,100842.09
2022-10-13T08:03:55.358Z,100842.09
2022-10-13T08:04:57.238Z,100843.86
2022-10-13T08:06:00.704Z,100850.86
2022-10-13T08:07:04.522Z,100841.31
2022-10-13T08:08:06.447Z,100843.92
2022-10-13T08:09:09.312Z,100847.31
2022-10-13T08:10:12.185Z,100842.31
2022-10-13T08:11:16.707Z,100847.44
2022-10-13T08:12:19.545Z,100844.77
2022-10-13T08:13:21.781Z,100854.46
2022-10-13T08:14:24.038Z,100848.27
2022-10-13T08:15:26.506Z,100848.19
2022-10-13T08:16:30.224Z,100851.53
2022-10-13T08:17:32.154Z,100845.29
2022-10-13T08:18:33.902Z,100847.80
2022-10-13T08:19:36.212Z,100854.60
2022-10-13T08:20:43.863Z,100850.19
2022-10-13T08:22:02.262Z,100850.06
2022-10-13T08:22:50.635Z,100848.19
2022-10-13T08:23:52.452Z,100845.41
2022-10-13T08:24:54.648Z,100847.93
2022-10-13T08:25:58.643Z,100849.63
2022-10-13T08:27:00.566Z,100854.95
2022-10-13T08:28:02.529Z,100856.66
2022-10-13T08:30:10.862Z,100847.02
2022-10-13T08:31:14.116Z,100849.73
2022-10-13T08:32:18.160Z,100846.22
2022-10-13T08:33:20.516Z,100850.41
2022-10-13T08:34:23.412Z,100854.34
2022-10-13T08:35:25.986Z,100853.02
2022-10-13T08:36:28.015Z,100858.98
2022-10-13T08:37:29.923Z,100851.89
2022-10-13T08:38:32.333Z,100843.94
2022-10-13T08:39:35.319Z,100842.19
2022-10-13T08:40:38.752Z,100845.55
2022-10-13T08:41:43.434Z,100848.89
2022-10-13T08:42:45.950Z,100847.93
2022-10-13T08:44:27.912Z,100847.19
2022-10-13T08:46:08.804Z,100852.12
2022-10-13T08:47:40.893Z,100847.56
2022-10-13T08:48:45.826Z,100850.02
2022-10-13T08:49:49.583Z,100845.66
2022-10-13T08:51:00.427Z,100849.05
2022-10-13T08:52:04.822Z,100847.56
2022-10-13T08:53:13.233Z,100853.02
2022-10-13T08:54:18.877Z,100852.98
2022-10-13T08:55:33.700Z,100854.73
2022-10-13T08:56:36.824Z,100853.15
2022-10-13T08:57:39.867Z,100853.92
2022-10-13T08:58:44.496Z,100851.31
2022-10-13T08:59:49.697Z,100854.80
2022-10-13T09:01:01.611Z,100854.86
2022-10-13T09:02:12.080Z,100848.70
2022-10-13T09:03:22.705Z,100851.31
2022-10-13T09:04:34.479Z,100854.73
2022-10-13T09:05:43.077Z,100858.98
2022-10-13T09:06:49.094Z,100856.20
2022-10-13T09:09:00.685Z,100860.63
2022-10-13T09:10:08.067Z,100859.89
2022-10-13T09:11:11.903Z,100857.56
2022-10-13T09:12:14.476Z,100861.69
2022-10-13T09:13:19.962Z,100860.63
2022-10-13T09:14:28.013Z,100850.02
2022-10-13T09:15:32.065Z,100864.05
2022-10-13T09:16:44.636Z,100861.38
2022-10-13T09:17:50.459Z,100864.05
2022-10-13T09:18:55.144Z,100860.73
2022-10-13T09:20:03.878Z,100866.69
2022-10-13T09:22:33.192Z,100864.27
2022-10-13T09:23:39.514Z,100860.98
2022-10-13T09:24:40.527Z,100858.24
2022-10-13T09:25:47.573Z,100859.95
2022-10-13T09:26:53.319Z,100860.82
2022-10-13T09:27:59.586Z,100858.14
2022-10-13T09:29:12.112Z,100858.02
2022-10-13T09:30:30.672Z,100862.23
2022-10-13T09:31:35.289Z,100858.81
2022-10-13T09:32:37.523Z,100857.17
2022-10-13T09:33:39.822Z,100854.39
2022-10-13T09:34:44.507Z,100858.02
2022-10-13T09:36:06.983Z,100853.73
2022-10-13T09:37:24.500Z,100850.14
2022-10-13T09:38:28.228Z,100849.73
2022-10-13T09:39:33.795Z,100848.25
2022-10-13T09:40:38.027Z,100855.28
2022-10-13T09:41:43.446Z,100849.96
2022-10-13T09:42:52.822Z,100846.05
2022-10-13T09:43:58.874Z,100853.40
2022-10-13T09:45:16.587Z,100848.67
2022-10-13T09:46:26.965Z,100852.80
2022-10-13T09:47:30.556Z,100845.73
2022-10-13T09:48:43.977Z,100847.06
2022-10-13T09:51:32.932Z,100846.41
2022-10-13T09:52:37.989Z,100842.31
2022-10-13T09:53:40.951Z,100845.89
2022-10-13T09:54:52.465Z,100844.36
2022-10-13T09:56:16.710Z,100850.73
2022-10-13T09:57:47.233Z,100833.49
2022-10-13T09:58:55.929Z,100840.95
2022-10-13T10:00:16.573Z,100833.48
2022-10-13T10:01:29.998Z,100836.84
2022-10-13T10:02:40.401Z,100835.75
2022-10-13T10:03:45.967Z,100842.44
2022-10-13T10:04:51.107Z,100842.44
2022-10-13T10:06:01.432Z,100842.53
2022-10-13T10:07:14.102Z,100839.02
2022-10-13T10:08:28.890Z,100841.41
2022-10-13T10:09:49.137Z,100839.84
2022-10-13T10:10:55.468Z,100843.58
2022-10-13T10:12:00.129Z,100838.41
2022-10-13T10:13:07.969Z,100841.41
2022-10-13T10:14:21.552Z,100843.69
2022-10-13T10:15:27.339Z,100844.83
2022-10-13T10:16:42.490Z,100840.63
2022-10-13T10:17:48.502Z,100836.04
2022-10-13T10:18:58.890Z,100837.53
2022-10-13T10:20:27.405Z,100839.24
2022-10-13T10:21:36.469Z,100843.41
2022-10-13T10:22:54.250Z,100841.63
2022-10-13T10:24:09.136Z,100839.92
2022-10-13T10:25:26.845Z,100838.80
2022-10-13T10:26:39.946Z,100843.77
2022-10-13T10:27:46.988Z,100843.58
2022-10-13T10:29:10.583Z,100838.10
2022-10-13T10:30:20.309Z,100840.42
2022-10-13T10:31:59.538Z,100836.81
2022-10-13T10:33:05.349Z,100835.44
2022-10-13T10:34:27.531Z,100824.36
2022-10-13T10:35:52.270Z,100831.27
2022-10-13T10:37:25.372Z,100837.00
2022-10-13T10:38:52.910Z,100834.11
2022-10-13T10:40:12.345Z,100833.34
2022-10-13T10:41:36.379Z,100829.66
2022-10-13T10:42:52.261Z,100838.71
2022-10-13T10:43:58.111Z,100831.84
2022-10-13T10:45:03.724Z,100827.20
2022-10-13T10:47:28.955Z,100826.26
2022-10-13T10:48:37.575Z,100824.23
2022-10-13T10:49:40.186Z,100827.74
2022-10-13T10:50:43.385Z,100822.73
2022-10-13T10:51:46.122Z,100822.73
2022-10-13T10:53:05.080Z,100824.54
2022-10-13T10:54:33.384Z,100822.59
2022-10-13T10:55:39.509Z,100813.67
2022-10-13T10:56:45.874Z,100814.86
2022-10-13T10:58:12.221Z,100815.39
2022-10-13T10:59:27.565Z,100814.05
2022-10-13T11:00:33.225Z,100816.22
2022-10-13T11:01:42.017Z,100816.00
2022-10-13T11:02:50.709Z,100815.70
2022-10-13T11:04:18.318Z,100818.65
2022-10-13T11:05:22.462Z,100811.34
2022-10-13T11:06:30.847Z,100812.61
2022-10-13T11:07:39.792Z,100818.15
2022-10-13T11:08:47.167Z,100817.92
2022-10-13T11:09:58.580Z,100815.16
2022-10-13T11:11:26.644Z,100812.48
2022-10-13T11:12:27.731Z,100814.93
2022-10-13T11:13:29.570Z,100821.12
2022-10-13T11:14:31.432Z,100811.42
2022-10-13T11:15:39.988Z,100816.48
2022-10-13T11:17:00.644Z,100816.64
2022-10-13T11:18:07.217Z,100813.97
2022-10-13T11:19:31.202Z,100819.09
2022-10-13T11:20:36.904Z,100823.18
2022-10-13T11:22:01.418Z,100816.83
2022-10-13T11:23:20.779Z,100807.95
2022-10-13T11:24:29.843Z,100816.02
2022-10-13T11:25:41.359Z,100812.26
2022-10-13T11:26:43.839Z,100819.34
2022-10-13T11:27:47.301Z,100813.38
2022-10-13T11:28:49.121Z,100816.28
2022-10-13T11:29:57.571Z,100815.91
2022-10-13T11:31:25.204Z,100822.00
2022-10-13T11:32:30.915Z,100815.33
2022-10-13T11:33:38.751Z,100816.87
2022-10-13T11:34:45.408Z,100820.08
2022-10-13T11:35:47.993Z,100822.75
2022-10-13T11:36:59.650Z,100817.41
2022-10-13T11:38:10.647Z,100812.87
2022-10-13T11:39:21.979Z,100817.83
2022-10-13T11:40:31.426Z,100817.92
2022-10-13T11:41:37.020Z,100822.69
2022-10-13T11:45:27.837Z,100819.63
2022-10-13T11:46:53.430Z,100813.05
2022-10-13T11:48:15.686Z,100820.76
2022-10-13T11:49:42.675Z,100812.69
2022-10-13T11:51:12.581Z,100807.27
2022-10-13T11:52:37.621Z,100816.77
2022-10-13T11:55:08.207Z,100811.44
2022-10-13T11:56:23.389Z,100818.75
2022-10-13T11:57:26.929Z,100814.70
2022-10-13T11:58:31.021Z,100809.43
2022-10-13T11:59:35.562Z,100809.58
2022-10-13T12:00:38.182Z,100812.30
2022-10-13T12:01:44.226Z,100808.89
2022-10-13T12:02:49.629Z,100815.95
2022-10-13T12:03:54.781Z,100811.41
2022-10-13T12:05:02.752Z,100805.32
2022-10-13T12:06:09.388Z,100814.19
2022-10-13T12:07:15.226Z,100810.80
2022-10-13T12:08:19.595Z,100806.48
2022-10-13T12:09:22.441Z,100810.66
2022-10-13T12:10:30.868Z,100804.27
2022-10-13T12:11:38.126Z,100814.02
2022-10-13T12:12:48.548Z,100804.30
2022-10-13T12:13:53.082Z,100802.66
2022-10-13T12:14:59.837Z,100803.41
2022-10-13T12:16:04.518Z,100800.56
2022-10-13T12:17:25.709Z,100797.62
2022-10-13T12:18:31.995Z,100796.53
2022-10-13T12:19:33.722Z,100797.94
2022-10-13T12:20:35.791Z,100796.01
2022-10-13T12:21:50.827Z,100789.67
2022-10-13T12:22:54.615Z,100792.86
2022-10-13T12:24:00.097Z,100786.22
2022-10-13T12:25:05.261Z,100794.30
2022-10-13T12:26:17.165Z,100793.40
2022-10-13T12:27:22.961Z,100787.89
2022-10-13T12:28:31.885Z,100781.52
2022-10-13T12:29:37.296Z,100782.94
2022-10-13T12:30:38.481Z,100785.16
2022-10-13T12:31:45.972Z,100789.24
2022-10-13T12:32:49.903Z,100778.56
2022-10-13T12:33:54.876Z,100785.53
2022-10-13T12:35:19.065Z,100789.24
2022-10-13T12:36:24.385Z,100788.67
2022-10-13T12:37:29.882Z,100784.02
2022-10-13T12:38:32.914Z,100781.11
2022-10-13T12:39:36.533Z,100785.26
2022-10-13T12:40:39.419Z,100781.61
2022-10-13T12:41:44.368Z,100788.30
2022-10-13T12:42:47.645Z,100778.77
2022-10-13T12:43:50.999Z,100787.33
2022-10-13T12:44:53.780Z,100791.72
2022-10-13T12:45:56.355Z,100788.06
2022-10-13T12:47:00.943Z,100783.58
2022-10-13T12:48:03.051Z,100777.34
2022-10-13T12:49:14.364Z,100772.78